Terminal Aerodrome Forecast
Issued by NWS Lake Charles, LA

Home | Current Version | Previous Version | Text Only | Print | Product List | Glossary On
Versions: 1 2 3 4 5 6 7 8 9 10 11 12 13 14 15 16 17
664
FTUS44 KLCH 191132
TAFAEX
TAF
KAEX 191132Z 1912/2012 00000KT 1SM BR OVC008
      TEMPO 1912/1914 4SM -RA SCT008 OVC020
     FM191400 19008KT 4SM -RA OVC009
      TEMPO 1915/1919 2SM +SHRA OVC005
     FM192000 21010KT 6SM BR VCSH OVC015
     FM200300 19004KT 2SM BR OVC007=

USA.gov is the U.S. government's official web portal to all federal, state and local government web resources and services.